La Junta, New Mexico
Current Conditions -  °F | °C
As of 12:55 AM on Thursday 29 Jan 2015 (Local Time) from KLAM Reporting Station
Clear Clear  
Wind Chill: 39°   Ceiling: Unl
Heat Index: 39°   Visibility: 10mi
Dew Point: 24°   Wind: 0mph
Humidity: 57%   Direction: NA
Pressure: 30.32"   Gusts: NA
Location:  36.1441°N, 105.996°W
Report Text: KLAM 290755Z AUTO 00000KT 10SM CLR 04/M04 A3032 RMK AO2 T00371042
Loading
Personal Weather Stations






























Interactive Weather Map New forecast layout! Learn more

10-Day Weather Forecast

Advertisements
Track Severe Weather on mobile